Time;durP1;ratioP1;P1;durP2;ratioP2;P2;SDS_P1;SDS_P2;PMS_P1;PMS_P2;Temp;Humidity;BMP_temperature;BMP_pressure;BME280_temperature;BME280_humidity;BME280_pressure;Samples;Min_cycle;Max_cycle;Signal;HPM_P1;HPM_P2
2023/10/09 09:33:30;;;;;;;44.17;7.20;;;;;;;18.67;62.26;97203.34;2084545;28;20554;-62
2023/10/09 09:36:04;;;;;;;35.83;7.20;;;;;;;18.85;61.61;97206.53;2083138;28;20574;-62
2023/10/09 09:37:13;;;;;;;26.27;4.95;;;;;;;19.07;61.27;97197.97;2083012;28;20501;-62
2023/10/09 09:38:17;;;;;;;29.13;5.07;;;;;;;19.22;61.00;97203.13;2081965;28;20681;-62
2023/10/09 09:39:30;;;;;;;25.08;5.00;;;;;;;19.36;59.83;97204.78;2081166;28;20217;-62
2023/10/09 09:40:53;;;;;;;23.35;5.05;;;;;;;19.55;60.67;97207.81;2074605;28;20210;-62
2023/10/09 09:42:03;;;;;;;27.70;5.25;;;;;;;19.63;59.11;97201.97;2074680;28;20194;-62
2023/10/09 09:43:05;;;;;;;25.95;4.95;;;;;;;19.86;58.33;97202.97;2074112;28;20201;-62
2023/10/09 09:44:06;;;;;;;38.40;5.93;;;;;;;19.94;57.64;97199.75;2074207;28;20202;-62
2023/10/09 09:45:11;;;;;;;26.35;5.30;;;;;;;20.15;57.27;97196.44;2072843;28;20217;-62
2023/10/09 09:46:15;;;;;;;28.55;5.22;;;;;;;20.41;56.69;97194.47;2072281;28;20194;-62
2023/10/09 09:47:23;;;;;;;43.20;6.20;;;;;;;20.65;56.34;97198.88;2075809;28;20205;-64
2023/10/09 09:48:25;;;;;;;26.98;5.35;;;;;;;20.87;55.77;97195.44;2075335;28;20194;-64
2023/10/09 09:49:31;;;;;;;34.50;5.60;;;;;;;21.37;55.37;97201.22;2074212;28;20220;-64
2023/10/09 09:50:36;;;;;;;41.53;6.18;;;;;;;21.87;54.02;97202.59;2073828;28;20201;-64
2023/10/09 09:51:42;;;;;;;34.90;6.43;;;;;;;22.39;53.67;97199.28;2073957;28;20542;-64
2023/10/09 09:52:44;;;;;;;27.67;4.97;;;;;;;23.51;51.38;97210.06;2076167;28;20222;-64
2023/10/09 09:53:49;;;;;;;35.53;5.35;;;;;;;23.70;50.31;97205.78;2074349;28;20191;-64
2023/10/09 09:54:52;;;;;;;26.92;4.65;;;;;;;23.71;50.82;97204.81;2073802;28;20276;-64
2023/10/09 09:55:57;;;;;;;34.05;5.18;;;;;;;23.94;50.31;97208.09;2074711;28;20204;-63
2023/10/09 09:57:08;;;;;;;20.60;5.03;;;;;;;24.01;49.63;97214.56;2072112;28;20729;-63
2023/10/09 09:58:18;;;;;;;20.45;5.13;;;;;;;24.65;48.12;97211.47;2073367;28;20281;-64
2023/10/09 09:59:27;;;;;;;31.73;5.22;;;;;;;24.48;48.75;97207.66;2071839;28;20193;-64
2023/10/09 10:01:56;;;;;;;32.25;5.32;;;;;;;24.26;48.76;97213.16;2075916;28;20279;-61
2023/10/09 10:03:05;;;;;;;27.98;5.47;;;;;;;23.95;48.81;97201.78;2074152;28;20190;-62
2023/10/09 10:04:20;;;;;;;28.08;6.00;;;;;;;23.47;50.29;97203.34;2076710;28;20201;-62
2023/10/09 10:05:22;;;;;;;31.98;4.55;;;;;;;23.33;51.04;97201.06;2072661;28;20248;-61
2023/10/09 10:06:26;;;;;;;38.10;7.10;;;;;;;23.41;49.91;97206.53;2072887;28;20673;-61
2023/10/09 10:07:30;;;;;;;30.65;5.63;;;;;;;23.53;49.66;97209.94;2073528;28;20289;-61
2023/10/09 10:08:32;;;;;;;38.17;6.53;;;;;;;23.89;48.92;97205.78;2074815;28;20189;-61
2023/10/09 10:09:39;;;;;;;25.65;5.82;;;;;;;24.22;48.13;97205.56;2075659;28;20588;-61
2023/10/09 10:10:52;;;;;;;29.20;5.00;;;;;;;24.63;47.43;97208.88;2075456;28;20198;-61
2023/10/09 10:11:54;;;;;;;30.85;5.00;;;;;;;24.23;48.82;97208.09;2074911;28;20190;-61
2023/10/09 10:13:01;;;;;;;26.80;5.07;;;;;;;24.07;48.59;97199.81;2074074;28;20198;-62
2023/10/09 10:14:07;;;;;;;21.38;4.85;;;;;;;24.11;48.49;97211.88;2072793;28;20202;-61
2023/10/09 10:15:14;;;;;;;33.17;4.78;;;;;;;23.94;48.79;97208.09;2072806;28;20957;-61
2023/10/09 10:17:21;;;;;;;36.03;5.93;;;;;;;23.98;49.43;97206.00;2072269;28;20198;-61
2023/10/09 10:18:23;;;;;;;28.50;6.60;;;;;;;23.67;49.50;97211.38;2071846;28;20205;-62
2023/10/09 10:22:37;;;;;;;43.08;5.13;;;;;;;24.10;49.43;97197.72;2073431;28;20194;-61
2023/10/09 10:23:40;;;;;;;29.27;5.03;;;;;;;24.35;49.26;97210.63;2065838;28;20299;-62
2023/10/09 10:25:09;;;;;;;19.23;4.82;;;;;;;24.02;49.41;97205.56;2065655;28;20226;-61
2023/10/09 10:26:25;;;;;;;17.83;4.70;;;;;;;24.26;49.78;97210.50;2074392;28;20205;-61
2023/10/09 10:27:27;;;;;;;17.42;4.68;;;;;;;23.86;48.00;97207.88;2073357;28;20368;-62
2023/10/09 10:28:38;;;;;;;13.55;4.20;;;;;;;24.06;47.69;97198.13;2073115;28;20207;-61
2023/10/09 10:29:41;;;;;;;37.78;4.30;;;;;;;24.06;47.26;97203.44;2073909;28;20229;-62
2023/10/09 10:30:46;;;;;;;28.38;4.65;;;;;;;23.91;46.53;97201.22;2072753;28;20672;-62
2023/10/09 10:32:06;;;;;;;19.40;5.05;;;;;;;23.87;46.11;97196.25;2073777;28;20221;-61
2023/10/09 10:33:15;;;;;;;24.60;5.43;;;;;;;23.83;46.01;97201.00;2072372;28;20198;-62
2023/10/09 10:34:23;;;;;;;23.67;4.35;;;;;;;23.68;45.80;97189.06;2064924;28;20191;-61
2023/10/09 10:36:59;;;;;;;23.35;5.18;;;;;;;23.91;45.97;97195.88;2064778;28;20206;-61
2023/10/09 10:38:14;;;;;;;18.52;4.20;;;;;;;23.80;44.25;97182.63;2074444;28;20213;-61
2023/10/09 10:40:40;;;;;;;26.50;4.82;;;;;;;23.44;44.85;97183.13;2072448;28;20280;-61
2023/10/09 10:41:56;;;;;;;15.05;3.30;;;;;;;23.33;45.09;97179.75;2072201;28;20583;-61
2023/10/09 10:43:09;;;;;;;16.67;4.57;;;;;;;23.24;44.29;97187.56;2073113;28;20210;-62
2023/10/09 10:45:48;;;;;;;29.00;4.85;;;;;;;23.06;45.27;97183.78;2052555;28;20188;-61
2023/10/09 10:46:52;;;;;;;15.40;4.10;;;;;;;22.91;44.82;97184.16;2051882;28;20824;-61
2023/10/09 10:47:58;;;;;;;16.08;4.15;;;;;;;22.83;45.43;97181.34;2050726;28;20811;-62
2023/10/09 10:49:15;;;;;;;15.07;4.00;;;;;;;22.86;45.25;97191.72;2050611;28;20204;-62
2023/10/09 10:51:37;;;;;;;14.25;4.40;;;;;;;22.58;44.39;97179.94;2047453;28;20211;-62
2023/10/09 10:52:41;;;;;;;19.63;4.63;;;;;;;22.59;44.01;97192.25;2048231;28;20223;-62
2023/10/09 10:53:57;;;;;;;17.27;3.90;;;;;;;22.58;44.25;97187.91;2048132;28;20197;-62
2023/10/09 10:55:48;;;;;;;24.58;5.05;;;;;;;22.64;44.02;97190.88;2045784;28;21000;-61
2023/10/09 10:56:45;;;;;;;25.98;4.30;;;;;;;22.76;43.76;97198.81;2045658;28;20333;-61
2023/10/09 10:58:09;;;;;;;14.25;4.60;;;;;;;22.88;43.73;97194.22;2043307;28;20198;-61
2023/10/09 10:59:11;;;;;;;20.45;4.32;;;;;;;23.16;43.51;97195.41;2045429;28;20211;-61
2023/10/09 11:01:56;;;;;;;20.08;4.90;;;;;;;23.73;42.00;97178.84;2043256;29;20215;-61
2023/10/09 11:03:13;;;;;;;13.95;4.45;;;;;;;23.99;41.54;97187.19;2038362;29;20316;-61
2023/10/09 11:04:24;;;;;;;13.43;3.67;;;;;;;23.64;41.26;97188.50;2037760;29;20236;-61
2023/10/09 11:05:26;;;;;;;12.88;4.40;;;;;;;23.56;41.64;97196.34;2042039;29;20193;-61
2023/10/09 11:06:36;;;;;;;11.82;4.05;;;;;;;23.46;40.57;97183.84;2044453;29;20203;-62
2023/10/09 11:07:38;;;;;;;21.50;4.63;;;;;;;23.81;42.02;97187.00;2043277;29;20600;-61
2023/10/09 11:08:58;;;;;;;13.27;4.60;;;;;;;24.03;41.16;97190.41;2043717;29;20336;-61
2023/10/09 11:11:15;;;;;;;15.70;4.07;;;;;;;23.84;39.66;97194.69;2041911;29;20351;-61
2023/10/09 11:12:23;;;;;;;18.25;4.45;;;;;;;24.00;40.72;97190.66;2043212;29;20418;-62
2023/10/09 11:13:30;;;;;;;18.25;5.38;;;;;;;24.03;41.45;97187.75;2041591;29;20243;-61
2023/10/09 11:14:42;;;;;;;13.10;4.05;;;;;;;23.95;41.77;97196.44;2042617;29;20259;-61
2023/10/09 11:15:47;;;;;;;17.70;3.95;;;;;;;23.96;41.39;97201.63;2043780;29;20198;-62
2023/10/09 11:16:48;;;;;;;11.85;4.00;;;;;;;23.87;41.75;97199.78;2042136;29;20221;-62
2023/10/09 11:18:19;;;;;;;17.80;3.85;;;;;;;23.90;42.06;97209.31;2041770;29;20193;-61
2023/10/09 11:20:32;;;;;;;18.20;4.00;;;;;;;23.70;41.80;97203.13;2047954;28;20251;-62
2023/10/09 11:21:40;;;;;;;16.90;4.25;;;;;;;23.68;41.94;97200.59;2068418;28;20230;-62
2023/10/09 11:23:05;;;;;;;17.15;4.18;;;;;;;23.63;42.00;97203.66;2068463;28;20273;-61
2023/10/09 11:24:25;;;;;;;17.35;5.40;;;;;;;23.45;42.03;97205.28;2067979;28;20209;-62
2023/10/09 11:25:26;;;;;;;14.82;4.40;;;;;;;23.31;42.07;97203.84;2068398;28;20234;-62
2023/10/09 11:26:28;;;;;;;18.13;4.78;;;;;;;23.09;42.53;97199.53;2066611;28;20801;-62
2023/10/09 11:27:32;;;;;;;13.38;4.40;;;;;;;23.02;42.65;97206.34;2067245;28;20718;-61
2023/10/09 11:28:49;;;;;;;14.38;3.78;;;;;;;22.93;42.78;97198.19;2067543;28;20195;-62
2023/10/09 11:30:55;;;;;;;13.57;4.30;;;;;;;22.70;42.70;97192.16;2068464;28;20664;-61
2023/10/09 11:32:05;;;;;;;19.58;4.80;;;;;;;22.65;43.00;97192.59;2070199;28;20199;-61
2023/10/09 11:33:14;;;;;;;27.25;5.80;;;;;;;22.69;42.75;97184.31;2068721;28;20205;-60
2023/10/09 11:34:31;;;;;;;23.60;9.70;;;;;;;22.61;42.85;97182.31;2067174;28;20233;-61
2023/10/09 11:35:35;;;;;;;15.02;5.70;;;;;;;22.60;41.86;97181.50;2067318;28;20238;-61
2023/10/09 11:36:36;;;;;;;21.40;5.63;;;;;;;22.39;42.33;97180.66;2067992;28;20214;-61
2023/10/09 11:37:38;;;;;;;12.82;4.72;;;;;;;22.38;41.85;97171.81;2066880;28;20233;-61
2023/10/09 11:38:45;;;;;;;19.10;5.07;;;;;;;22.39;42.15;97173.50;2066354;28;20191;-61
2023/10/09 11:39:52;;;;;;;26.27;5.40;;;;;;;22.36;42.41;97165.75;2066500;28;20223;-60
2023/10/09 11:41:18;;;;;;;10.35;4.30;;;;;;;22.14;41.97;97150.75;2069195;28;20198;-61
2023/10/09 11:42:37;;;;;;;16.45;4.90;;;;;;;22.20;41.41;97162.72;2068940;28;20261;-61
2023/10/09 11:43:58;;;;;;;13.40;5.40;;;;;;;22.14;40.82;97159.59;2068307;28;20203;-61
2023/10/09 11:45:04;;;;;;;14.60;4.90;;;;;;;22.15;41.07;97163.09;2067145;28;20609;-60
2023/10/09 11:46:13;;;;;;;12.85;5.60;;;;;;;22.12;40.52;97174.81;2068173;28;20230;-61
2023/10/09 11:48:22;;;;;;;19.15;5.82;;;;;;;22.27;41.04;97163.84;2068106;28;20206;-61
2023/10/09 11:49:34;;;;;;;14.30;4.68;;;;;;;22.25;41.70;97161.34;2068614;28;20193;-61
2023/10/09 11:54:33;;;;;;;13.43;5.65;;;;;;;22.17;41.26;97164.66;2078882;28;20198;-61
2023/10/09 11:55:36;;;;;;;15.23;4.65;;;;;;;22.19;40.58;97159.19;2079007;28;20222;-61
2023/10/09 11:56:37;;;;;;;18.42;5.78;;;;;;;22.18;40.21;97160.16;2079183;28;20202;-60
2023/10/09 11:57:39;;;;;;;15.82;5.07;;;;;;;22.05;39.73;97167.50;2079302;28;21016;-61
2023/10/09 11:58:40;;;;;;;16.92;5.35;;;;;;;22.06;39.81;97158.53;2070189;28;20190;-61
2023/10/09 11:59:43;;;;;;;28.90;5.72;;;;;;;22.10;39.88;97160.81;2070126;28;20237;-61
2023/10/09 12:00:46;;;;;;;12.98;5.15;;;;;;;22.09;39.91;97158.28;2079386;28;20312;-61
2023/10/09 12:01:52;;;;;;;17.45;5.93;;;;;;;22.09;40.19;97160.94;2079405;28;20198;-61
2023/10/09 12:02:55;;;;;;;19.83;5.80;;;;;;;22.00;39.45;97151.91;2079300;28;20581;-61
2023/10/09 12:03:57;;;;;;;20.58;5.80;;;;;;;21.98;39.88;97148.56;2079155;28;20197;-60
2023/10/09 12:04:59;;;;;;;23.70;5.20;;;;;;;22.03;39.81;97143.69;2078594;28;21071;-61
2023/10/09 12:06:05;;;;;;;15.93;6.10;;;;;;;22.10;38.91;97152.00;2079054;28;20208;-60
2023/10/09 12:07:10;;;;;;;16.30;6.00;;;;;;;22.07;39.29;97146.91;2078575;28;20247;-61
2023/10/09 12:08:15;;;;;;;18.33;5.57;;;;;;;22.07;38.52;97134.47;2079100;28;20760;-61
2023/10/09 12:09:24;;;;;;;14.52;5.07;;;;;;;22.12;38.52;97131.44;2078301;28;20611;-61
2023/10/09 12:10:25;;;;;;;14.88;5.78;;;;;;;22.09;39.33;97127.19;2079257;28;20185;-61
2023/10/09 12:11:31;;;;;;;21.17;6.03;;;;;;;22.02;39.20;97123.38;2071035;28;20244;-62
2023/10/09 12:12:34;;;;;;;19.92;5.90;;;;;;;22.09;39.27;97127.19;2071884;28;20206;-61
2023/10/09 12:13:38;;;;;;;16.58;5.80;;;;;;;22.18;39.47;97125.59;2078920;28;20406;-61
2023/10/09 12:14:40;;;;;;;19.38;6.03;;;;;;;22.20;39.15;97123.66;2078848;28;20296;-61
2023/10/09 12:15:45;;;;;;;20.27;5.25;;;;;;;22.16;39.49;97124.88;2078907;28;20193;-61
2023/10/09 12:16:49;;;;;;;18.13;5.45;;;;;;;22.22;39.17;97124.38;2078961;28;20209;-61
2023/10/09 12:17:53;;;;;;;11.73;5.25;;;;;;;22.29;39.00;97122.84;2079301;28;20198;-61
2023/10/09 12:18:55;;;;;;;20.00;5.10;;;;;;;22.31;39.59;97120.09;2078560;28;20637;-61
2023/10/09 12:19:56;;;;;;;18.92;5.97;;;;;;;22.37;39.05;97118.75;2078517;28;20300;-61
2023/10/09 12:21:03;;;;;;;19.70;6.38;;;;;;;22.43;38.69;97121.72;2079162;28;20212;-62
2023/10/09 12:22:10;;;;;;;24.58;6.82;;;;;;;22.50;39.03;97112.25;2079115;28;20251;-61
2023/10/09 12:23:14;;;;;;;17.00;5.03;;;;;;;22.78;38.83;97112.50;2078844;28;20746;-61
2023/10/09 12:24:18;;;;;;;17.85;5.20;;;;;;;23.00;38.21;97115.97;2077438;28;20205;-62
2023/10/09 12:25:20;;;;;;;14.57;5.10;;;;;;;23.12;38.00;97114.88;2078918;28;20209;-61
2023/10/09 12:26:22;;;;;;;16.90;5.40;;;;;;;23.34;38.08;97117.47;2077618;28;20323;-61
2023/10/09 12:27:23;;;;;;;17.67;5.75;;;;;;;23.66;38.24;97109.25;2070992;28;20195;-62
2023/10/09 12:28:24;;;;;;;20.73;6.07;;;;;;;24.01;38.03;97121.22;2070980;28;20229;-61
2023/10/09 12:29:30;;;;;;;15.15;5.50;;;;;;;24.42;37.63;97113.84;2078654;28;20204;-61
2023/10/09 12:30:38;;;;;;;14.82;4.88;;;;;;;24.65;37.13;97107.34;2069721;28;20640;-61
2023/10/09 12:31:43;;;;;;;12.85;4.55;;;;;;;24.51;37.59;97109.47;2066727;28;20752;-62
2023/10/09 12:32:45;;;;;;;15.55;6.05;;;;;;;24.33;38.13;97098.69;2068140;28;20197;-62
2023/10/09 12:33:47;;;;;;;13.65;5.50;;;;;;;24.32;38.14;97104.19;2069097;28;20192;-61
2023/10/09 12:34:50;;;;;;;17.25;4.78;;;;;;;24.32;38.02;97109.53;2067925;28;20226;-61
2023/10/09 12:35:52;;;;;;;16.70;5.20;;;;;;;24.25;37.97;97110.09;2068557;28;20194;-62
2023/10/09 12:36:54;;;;;;;17.17;5.85;;;;;;;24.41;37.97;97116.66;2066795;28;20715;-61
2023/10/09 12:37:56;;;;;;;17.30;4.88;;;;;;;24.49;38.42;97108.75;2068911;28;20203;-62
2023/10/09 12:39:01;;;;;;;16.88;5.18;;;;;;;24.54;38.23;97111.00;2069523;28;20728;-62
2023/10/09 12:40:05;;;;;;;15.80;5.03;;;;;;;24.37;38.04;97105.44;2064945;28;20329;-62
2023/10/09 12:41:19;;;;;;;15.68;4.65;;;;;;;24.73;37.30;97105.63;2065756;28;20281;-62
2023/10/09 12:42:21;;;;;;;20.42;5.18;;;;;;;24.81;37.63;97104.06;2067384;28;20202;-62
2023/10/09 12:43:23;;;;;;;18.80;5.90;;;;;;;24.56;37.58;97104.53;2067444;28;20210;-62
2023/10/09 12:44:27;;;;;;;14.45;5.78;;;;;;;24.67;37.70;97100.88;2066689;28;20199;-61
2023/10/09 12:45:32;;;;;;;17.13;5.30;;;;;;;24.61;38.02;97109.44;2067949;28;20205;-62
2023/10/09 12:46:37;;;;;;;14.52;4.68;;;;;;;24.51;37.40;97105.97;2068343;28;20198;-61
2023/10/09 12:47:42;;;;;;;16.67;5.65;;;;;;;24.16;37.45;97108.25;2067401;28;20196;-62
2023/10/09 12:48:47;;;;;;;17.38;5.25;;;;;;;24.24;38.38;97111.06;2065156;28;20222;-61
2023/10/09 12:49:48;;;;;;;21.25;5.05;;;;;;;24.50;38.17;97114.94;2067676;28;20219;-61
2023/10/09 12:50:53;;;;;;;17.15;5.30;;;;;;;24.31;38.09;97114.00;2066799;28;20198;-61
2023/10/09 12:51:57;;;;;;;17.25;5.88;;;;;;;24.19;37.82;97113.34;2065737;28;20187;-61
2023/10/09 12:53:02;;;;;;;19.40;4.97;;;;;;;24.31;38.01;97116.66;2069078;28;20635;-61
2023/10/09 12:54:04;;;;;;;17.85;6.18;;;;;;;24.50;37.90;97121.13;2066476;28;20251;-62
2023/10/09 12:55:09;;;;;;;19.58;5.93;;;;;;;24.48;38.69;97122.25;2069769;28;20683;-61
2023/10/09 12:56:12;;;;;;;14.32;5.15;;;;;;;24.38;38.69;97116.94;2069825;28;20202;-62
2023/10/09 12:57:13;;;;;;;19.65;6.20;;;;;;;24.44;38.67;97114.53;2067893;28;20261;-62
2023/10/09 12:58:15;;;;;;;15.75;5.90;;;;;;;24.35;38.45;97115.38;2067881;28;20195;-61
2023/10/09 12:59:19;;;;;;;22.20;6.07;;;;;;;24.58;37.84;97112.38;2067538;28;20656;-62
2023/10/09 13:00:25;;;;;;;15.23;5.95;;;;;;;24.58;37.74;97107.03;2067317;28;20286;-62
2023/10/09 13:01:32;;;;;;;12.98;5.43;;;;;;;24.13;37.50;97112.06;2068632;28;20202;-61
2023/10/09 13:02:33;;;;;;;12.15;5.43;;;;;;;24.07;37.67;97115.28;2066486;28;20203;-62
2023/10/09 13:03:38;;;;;;;11.13;5.53;;;;;;;24.36;37.42;97117.06;2070515;28;20222;-61
2023/10/09 13:04:42;;;;;;;17.77;5.88;;;;;;;24.49;37.01;97111.41;2067315;28;20710;-61
2023/10/09 13:05:53;;;;;;;13.70;5.95;;;;;;;24.92;36.87;97107.38;2067536;28;20511;-62
2023/10/09 13:07:01;;;;;;;16.55;5.53;;;;;;;25.25;36.85;97107.78;2068640;28;20198;-62
2023/10/09 13:08:03;;;;;;;17.33;5.72;;;;;;;25.65;36.75;97105.72;2067911;28;20194;-62
2023/10/09 13:09:06;;;;;;;15.55;4.50;;;;;;;26.01;35.67;97107.53;2067225;28;20194;-62
2023/10/09 13:10:08;;;;;;;22.70;9.95;;;;;;;26.13;34.50;97114.34;2067773;28;20226;-61
2023/10/09 13:11:11;;;;;;;40.42;21.90;;;;;;;26.34;33.74;97114.00;2068482;28;21317;-63
2023/10/09 13:12:17;;;;;;;26.38;13.70;;;;;;;26.41;33.93;97111.56;2067776;28;20194;-63
2023/10/09 13:13:20;;;;;;;14.63;6.70;;;;;;;26.39;33.85;97113.53;2067628;28;20202;-63
2023/10/09 13:14:22;;;;;;;18.27;7.03;;;;;;;26.53;32.77;97106.75;2067678;28;20309;-65
2023/10/09 13:15:24;;;;;;;17.33;5.72;;;;;;;26.55;32.80;97102.94;2066800;28;20219;-65
2023/10/09 13:16:27;;;;;;;14.50;6.82;;;;;;;26.49;33.35;97111.59;2067454;28;20204;-64
2023/10/09 13:17:29;;;;;;;18.25;7.18;;;;;;;26.35;33.97;97101.47;2068416;28;20207;-65
2023/10/09 13:18:33;;;;;;;19.15;5.75;;;;;;;26.17;33.73;97106.84;2069240;28;20610;-63
2023/10/09 13:19:34;;;;;;;15.88;7.25;;;;;;;25.87;33.05;97104.41;2068115;28;20219;-64
2023/10/09 13:20:36;;;;;;;20.05;6.68;;;;;;;26.03;33.03;97100.16;2068244;28;20523;-65
2023/10/09 13:21:40;;;;;;;20.33;7.18;;;;;;;26.27;32.99;97096.03;2065528;28;20214;-67
2023/10/09 13:22:46;;;;;;;18.73;6.50;;;;;;;26.58;32.73;97098.28;2067380;28;20187;-64
2023/10/09 13:23:54;;;;;;;18.85;7.20;;;;;;;26.34;33.65;97099.78;2067876;28;20197;-65
2023/10/09 13:25:03;;;;;;;16.77;7.50;;;;;;;26.20;32.56;97088.63;2067078;28;20215;-64
2023/10/09 13:26:17;;;;;;;13.85;6.60;;;;;;;26.05;33.59;97101.72;2068060;28;20206;-65
2023/10/09 13:27:34;;;;;;;22.08;7.20;;;;;;;26.07;33.74;97090.91;2066883;28;20203;-65
2023/10/09 13:28:37;;;;;;;19.13;6.90;;;;;;;26.11;34.10;97096.78;2067854;28;20192;-65
2023/10/09 13:29:39;;;;;;;15.32;6.68;;;;;;;26.08;33.88;97095.25;2065727;28;20603;-64
2023/10/09 13:30:49;;;;;;;17.38;6.93;;;;;;;26.00;34.66;97095.97;2067341;28;20220;-64
2023/10/09 13:31:57;;;;;;;17.35;6.60;;;;;;;25.73;35.18;97097.75;2066790;28;20200;-64
2023/10/09 13:33:00;;;;;;;16.63;6.30;;;;;;;25.94;34.81;97090.41;2069126;28;20199;-65
2023/10/09 13:34:02;;;;;;;14.80;6.75;;;;;;;25.85;34.71;97093.03;2065603;28;20237;-65
2023/10/09 13:35:05;;;;;;;20.98;6.03;;;;;;;25.72;34.92;97098.75;2066280;28;20241;-64
2023/10/09 13:36:17;;;;;;;15.13;5.43;;;;;;;25.78;34.87;97091.94;2066358;28;20195;-64
2023/10/09 13:37:22;;;;;;;14.30;6.18;;;;;;;26.00;34.58;97095.16;2066215;28;20210;-64
2023/10/09 13:38:23;;;;;;;15.90;6.47;;;;;;;26.20;34.33;97099.34;2069761;28;20290;-65
2023/10/09 13:39:30;;;;;;;13.02;6.47;;;;;;;26.52;33.85;97092.53;2069011;28;20203;-65
2023/10/09 13:40:33;;;;;;;14.52;5.82;;;;;;;26.51;34.70;97098.03;2068375;28;20203;-65
2023/10/09 13:41:34;;;;;;;17.02;5.70;;;;;;;26.14;34.48;97097.28;2067564;28;20277;-65
2023/10/09 13:42:37;;;;;;;20.65;8.32;;;;;;;26.55;34.56;97089.53;2067869;28;20210;-65
2023/10/09 13:43:43;;;;;;;18.27;6.53;;;;;;;26.75;34.61;97089.31;2066938;28;20191;-63
2023/10/09 13:44:48;;;;;;;14.18;6.40;;;;;;;27.04;34.20;97096.16;2068800;28;20219;-63
2023/10/09 13:45:50;;;;;;;20.83;10.93;;;;;;;27.00;34.00;97087.59;2066945;28;20197;-66
2023/10/09 13:46:54;;;;;;;17.42;7.82;;;;;;;26.79;33.81;97090.72;2067404;28;20207;-61
2023/10/09 13:48:02;;;;;;;26.13;10.88;;;;;;;26.78;34.00;97090.84;2067960;28;20251;-64
2023/10/09 13:49:09;;;;;;;13.00;6.07;;;;;;;26.90;33.77;97092.25;2067664;28;20251;-65
2023/10/09 13:50:10;;;;;;;14.55;5.93;;;;;;;26.81;33.68;97086.00;2066547;28;20273;-65
2023/10/09 13:51:19;;;;;;;17.67;6.28;;;;;;;26.61;33.55;97085.38;2067396;28;20203;-64
2023/10/09 13:52:21;;;;;;;21.67;6.60;;;;;;;26.47;34.28;97081.44;2067180;28;20205;-65
2023/10/09 13:53:26;;;;;;;17.45;6.85;;;;;;;26.39;34.33;97092.94;2067710;28;20565;-65
2023/10/09 13:55:43;;;;;;;26.35;7.13;;;;;;;26.59;34.18;97075.81;2066870;28;20235;-65
2023/10/09 13:56:45;;;;;;;18.38;6.80;;;;;;;26.42;33.93;97077.56;2066176;28;20191;-65
2023/10/09 13:57:46;;;;;;;13.98;7.20;;;;;;;26.62;33.96;97076.34;2067177;28;20548;-64
2023/10/09 13:58:54;;;;;;;15.77;7.85;;;;;;;26.20;33.86;97080.59;2066776;28;20193;-67
2023/10/09 13:59:56;;;;;;;16.10;7.20;;;;;;;26.16;34.21;97078.41;2066355;28;20790;-65
2023/10/09 14:00:58;;;;;;;16.58;6.97;;;;;;;26.23;33.94;97076.78;2066329;28;20204;-64
2023/10/09 14:01:59;;;;;;;21.20;8.00;;;;;;;26.29;33.98;97083.34;2067079;28;20288;-65
2023/10/09 14:03:03;;;;;;;19.02;7.45;;;;;;;26.48;34.16;97079.63;2066879;28;20286;-64
2023/10/09 14:04:08;;;;;;;16.05;6.55;;;;;;;26.51;34.27;97073.94;2066900;28;20204;-65
2023/10/09 14:05:10;;;;;;;17.10;6.75;;;;;;;25.94;34.13;97067.19;2067006;28;20690;-65
2023/10/09 14:06:12;;;;;;;20.05;7.70;;;;;;;25.69;34.20;97075.00;2066855;28;20203;-64
2023/10/09 14:07:17;;;;;;;29.80;6.95;;;;;;;25.68;34.64;97067.97;2066061;28;20197;-65
2023/10/09 14:08:23;;;;;;;16.85;6.65;;;;;;;25.54;34.67;97065.84;2067541;28;20245;-65
2023/10/09 14:09:37;;;;;;;18.23;6.70;;;;;;;25.81;34.84;97070.25;2067729;28;20516;-64
2023/10/09 14:10:39;;;;;;;20.85;6.43;;;;;;;25.88;35.12;97076.66;2068420;28;20196;-64
2023/10/09 14:11:44;;;;;;;15.40;6.22;;;;;;;25.74;35.24;97070.03;2067980;28;20195;-64
2023/10/09 14:12:45;;;;;;;21.40;6.75;;;;;;;26.09;35.07;97062.13;2069982;28;20227;-64
2023/10/09 14:13:48;;;;;;;17.00;6.03;;;;;;;26.14;34.80;97069.69;2068104;28;20676;-65
2023/10/09 14:15:10;;;;;;;17.27;6.75;;;;;;;25.88;35.65;97065.97;2067987;28;20753;-64
2023/10/09 14:16:23;;;;;;;18.85;6.85;;;;;;;25.74;35.53;97061.19;2064499;28;20397;-64
2023/10/09 14:17:27;;;;;;;15.05;6.90;;;;;;;25.81;35.68;97058.72;2068221;28;20209;-64
2023/10/09 14:18:29;;;;;;;16.75;7.60;;;;;;;25.84;35.78;97067.28;2066072;28;20250;-64
2023/10/09 14:19:33;;;;;;;23.02;6.80;;;;;;;25.98;35.81;97063.19;2066339;28;20682;-64
2023/10/09 14:20:34;;;;;;;16.38;7.22;;;;;;;25.98;35.77;97055.19;2067768;28;20786;-63
2023/10/09 14:21:37;;;;;;;27.83;6.60;;;;;;;25.91;35.56;97056.78;2067456;28;20260;-65
2023/10/09 14:22:39;;;;;;;22.85;7.25;;;;;;;26.04;35.64;97056.38;2068446;28;20208;-65
2023/10/09 14:23:45;;;;;;;19.38;6.25;;;;;;;26.18;35.19;97053.19;2067832;28;20229;-64
2023/10/09 14:24:55;;;;;;;26.98;7.80;;;;;;;26.21;35.66;97055.53;2066954;28;20221;-65
2023/10/09 14:26:01;;;;;;;17.08;6.55;;;;;;;25.99;35.68;97053.34;2069024;28;20197;-65
2023/10/09 14:27:04;;;;;;;17.83;6.60;;;;;;;25.94;36.15;97061.00;2068503;28;20338;-65
2023/10/09 14:28:07;;;;;;;15.30;6.55;;;;;;;26.01;36.85;97060.22;2070337;28;20577;-65
2023/10/09 14:29:09;;;;;;;18.50;6.78;;;;;;;25.96;36.71;97051.81;2069389;28;20196;-65
2023/10/09 14:30:18;;;;;;;12.80;6.53;;;;;;;26.06;36.16;97054.44;2066926;28;20244;-65
2023/10/09 14:31:26;;;;;;;22.70;7.85;;;;;;;25.91;36.30;97049.63;2068959;28;20251;-65
2023/10/09 14:32:34;;;;;;;15.48;6.30;;;;;;;25.65;35.93;97049.56;2069306;28;20664;-65
2023/10/09 14:33:37;;;;;;;17.58;6.18;;;;;;;25.33;36.25;97048.25;2068753;28;20225;-65
2023/10/09 14:34:43;;;;;;;20.48;7.20;;;;;;;25.47;36.66;97043.38;2068389;28;20235;-65
2023/10/09 14:35:45;;;;;;;24.60;7.00;;;;;;;25.47;37.25;97044.22;2067246;28;20216;-65
2023/10/09 14:36:48;;;;;;;17.05;6.65;;;;;;;25.50;36.65;97046.59;2067125;28;20198;-64
2023/10/09 14:37:51;;;;;;;16.73;6.95;;;;;;;25.50;36.91;97037.75;2068787;28;20639;-65
2023/10/09 14:38:52;;;;;;;13.95;6.50;;;;;;;25.52;36.05;97046.44;2076525;28;20230;-64
2023/10/09 14:39:56;;;;;;;19.45;6.10;;;;;;;25.46;35.55;97052.38;2074713;28;20224;-65
2023/10/09 14:40:59;;;;;;;19.88;6.85;;;;;;;25.45;35.75;97056.06;2066744;28;20270;-67
2023/10/09 14:42:09;;;;;;;16.15;6.43;;;;;;;25.33;35.76;97050.06;2066067;28;20314;-67
2023/10/09 14:43:20;;;;;;;17.45;6.88;;;;;;;25.16;35.99;97055.22;2069531;28;20249;-66
2023/10/09 14:44:23;;;;;;;20.15;6.55;;;;;;;25.19;35.91;97048.75;2068525;28;20232;-67
2023/10/09 14:45:29;;;;;;;16.60;6.40;;;;;;;25.22;35.79;97051.94;2069331;28;20743;-65
2023/10/09 14:46:31;;;;;;;20.60;6.38;;;;;;;25.03;36.17;97054.75;2061337;28;20304;-66
2023/10/09 14:47:32;;;;;;;17.67;6.90;;;;;;;25.01;36.24;97044.19;2062042;28;20871;-66
2023/10/09 14:48:37;;;;;;;20.63;7.10;;;;;;;24.98;36.34;97049.84;2065753;28;20238;-66
2023/10/09 14:49:43;;;;;;;18.35;6.63;;;;;;;25.00;36.51;97050.56;2066872;28;20683;-66
2023/10/09 14:50:49;;;;;;;13.68;6.47;;;;;;;24.89;36.25;97040.06;2066579;28;20377;-66
2023/10/09 14:51:50;;;;;;;19.50;6.72;;;;;;;25.00;36.15;97042.53;2069128;28;20210;-66
2023/10/09 14:52:52;;;;;;;28.55;6.78;;;;;;;25.16;36.12;97043.72;2060543;28;20194;-66
2023/10/09 14:54:03;;;;;;;19.27;7.40;;;;;;;25.24;36.26;97039.28;2061017;28;20195;-66
2023/10/09 14:55:05;;;;;;;18.45;7.25;;;;;;;25.34;36.70;97038.38;2068870;28;20234;-67
2023/10/09 14:56:08;;;;;;;23.95;7.18;;;;;;;25.56;36.88;97039.78;2068468;28;20206;-66
2023/10/09 14:57:11;;;;;;;27.30;7.68;;;;;;;25.51;36.13;97042.06;2071278;28;20207;-66
2023/10/09 14:58:14;;;;;;;24.00;7.20;;;;;;;25.55;35.52;97038.13;2066415;28;20261;-66
2023/10/09 14:59:19;;;;;;;18.85;7.30;;;;;;;25.71;35.48;97042.75;2069020;28;20203;-66
2023/10/09 15:00:23;;;;;;;22.10;6.60;;;;;;;25.65;35.80;97041.53;2070006;28;20200;-66
2023/10/09 15:01:28;;;;;;;18.90;6.70;;;;;;;25.63;35.92;97038.16;2068453;28;20209;-66
2023/10/09 15:02:31;;;;;;;21.00;7.60;;;;;;;25.61;36.02;97042.84;2068149;28;20313;-66
2023/10/09 15:03:37;;;;;;;21.80;7.45;;;;;;;25.82;35.95;97045.19;2067904;28;20196;-66